North Franklin, New York
Current Conditions -  °F | °C
As of 4:15 AM on Friday 31 Oct 2014 (Local Time) from KNY0 Reporting Station
Clear Clear  
Wind Chill: 32°   Ceiling: Unl
Heat Index: 32°   Visibility: 10mi
Dew Point: 30°   Wind: 3mph
Humidity: 94%   Direction: 230°SW
Pressure: 30.02"   Gusts: NA
Location:  42.4787°N, 75.0181°W
Report Text: KNY0 310815Z AUTO 23003KT 10SM CLR 00/M01 A3002 RMK AO2 T00001009
Loading
Personal Weather Stations






























Interactive Weather Map
Tropical Storm Tracking
New forecast layout! Learn more

10-Day Weather Forecast

Advertisements
Track Severe Weather on mobile